createdAt,value
2023-04-04T00:00:28.238Z,101814.22
2023-04-04T00:02:54.959Z,101809.94
2023-04-04T00:05:22.134Z,101812.75
2023-04-04T00:07:49.672Z,101805.63
2023-04-04T00:10:16.518Z,101806.63
2023-04-04T00:12:44.057Z,101811.44
2023-04-04T00:15:12.078Z,101804.69
2023-04-04T00:17:39.221Z,101808.31
2023-04-04T00:20:06.863Z,101805.22
2023-04-04T00:22:33.742Z,101803.91
2023-04-04T00:25:00.901Z,101799.78
2023-04-04T00:27:27.903Z,101785.69
2023-04-04T00:29:54.932Z,101790.81
2023-04-04T00:32:21.876Z,101794.28
2023-04-04T00:34:53.821Z,101790.81
2023-04-04T00:37:21.719Z,101784.53
2023-04-04T00:39:50.146Z,101787.34
2023-04-04T00:42:17.427Z,101785.38
2023-04-04T00:44:44.279Z,101786.00
2023-04-04T00:47:11.316Z,101790.13
2023-04-04T00:49:38.190Z,101782.03
2023-04-04T00:52:07.324Z,101785.47
2023-04-04T00:54:36.784Z,101782.03
2023-04-04T00:57:07.110Z,101777.53
2023-04-04T00:59:34.391Z,101774.25
2023-04-04T01:02:01.265Z,101778.72
2023-04-04T01:04:29.423Z,101776.41
2023-04-04T01:07:21.517Z,101780.22
2023-04-04T01:10:45.262Z,101770.34
2023-04-04T01:13:43.529Z,101776.00
2023-04-04T01:16:46.944Z,101779.78
2023-04-04T01:23:17.697Z,101776.72
2023-04-04T01:25:52.835Z,101769.75
2023-04-04T01:28:26.916Z,101773.59
2023-04-04T01:35:00.943Z,101764.19
2023-04-04T01:38:27.777Z,101767.81
2023-04-04T01:47:59.285Z,101762.88
2023-04-04T01:50:31.548Z,101759.72
2023-04-04T01:53:01.411Z,101763.69
2023-04-04T01:55:28.146Z,101761.69
2023-04-04T01:57:55.441Z,101755.91
2023-04-04T02:00:22.186Z,101753.78
2023-04-04T02:02:49.118Z,101750.69
2023-04-04T02:05:16.678Z,101748.72
2023-04-04T02:07:48.535Z,101740.44
2023-04-04T02:10:24.269Z,101755.84
2023-04-04T02:12:53.483Z,101753.38
2023-04-04T02:15:22.841Z,101747.59
2023-04-04T02:17:50.062Z,101747.31
2023-04-04T02:20:19.625Z,101754.41
2023-04-04T02:22:53.926Z,101743.81
2023-04-04T02:25:22.853Z,101752.44
2023-04-04T02:27:50.039Z,101755.44
2023-04-04T02:30:17.195Z,101749.31
2023-04-04T02:32:44.862Z,101751.78
2023-04-04T02:35:19.747Z,101761.38
2023-04-04T02:37:50.027Z,101755.44
2023-04-04T02:40:25.080Z,101758.06
2023-04-04T02:42:51.973Z,101754.78
2023-04-04T02:45:21.099Z,101757.56
2023-04-04T02:48:12.765Z,101750.47
2023-04-04T02:50:46.350Z,101748.81
2023-04-04T02:53:14.686Z,101753.47
2023-04-04T02:55:42.493Z,101756.47
2023-04-04T02:58:09.647Z,101749.34
2023-04-04T03:00:36.450Z,101744.56
2023-04-04T03:03:03.961Z,101753.47
2023-04-04T03:05:35.838Z,101749.19
2023-04-04T03:08:04.691Z,101748.53
2023-04-04T03:10:32.410Z,101749.53
2023-04-04T03:12:59.930Z,101753.19
2023-04-04T03:15:29.156Z,101754.50
2023-04-04T03:17:56.957Z,101749.88
2023-04-04T03:20:27.179Z,101749.88
2023-04-04T03:22:54.205Z,101745.91
2023-04-04T03:25:21.150Z,101749.88
2023-04-04T03:27:47.914Z,101750.88
2023-04-04T03:30:21.377Z,101748.22
2023-04-04T03:32:48.774Z,101751.22
2023-04-04T03:35:16.280Z,101752.19
2023-04-04T03:37:43.223Z,101753.19
2023-04-04T03:40:10.228Z,101753.53
2023-04-04T03:42:37.113Z,101754.53
2023-04-04T03:45:09.425Z,101747.56
2023-04-04T03:47:37.611Z,101743.44
2023-04-04T03:50:04.957Z,101748.44
2023-04-04T03:52:38.520Z,101745.94
2023-04-04T03:55:05.835Z,101752.88
2023-04-04T03:57:32.948Z,101754.53
2023-04-04T03:59:59.829Z,101748.25
2023-04-04T04:02:27.437Z,101748.25
2023-04-04T04:04:54.312Z,101744.94
2023-04-04T04:07:21.661Z,101747.78
2023-04-04T04:09:48.542Z,101748.94
2023-04-04T04:12:15.550Z,101750.06
2023-04-04T04:14:42.538Z,101747.63
2023-04-04T04:17:09.981Z,101746.09
2023-04-04T04:19:39.019Z,101744.63
2023-04-04T04:22:05.996Z,101741.00
2023-04-04T04:24:33.111Z,101736.03
2023-04-04T04:27:00.188Z,101741.31
2023-04-04T04:29:28.972Z,101744.97
2023-04-04T04:31:57.124Z,101749.59
2023-04-04T04:34:27.836Z,101753.06
2023-04-04T04:36:58.513Z,101738.03
2023-04-04T04:39:28.378Z,101748.94
2023-04-04T04:42:10.174Z,101744.63
2023-04-04T04:44:45.041Z,101741.00
2023-04-04T04:47:12.080Z,101747.13
2023-04-04T04:49:39.028Z,101744.31
2023-04-04T04:52:08.655Z,101755.53
2023-04-04T04:54:36.546Z,101754.88
2023-04-04T04:57:03.547Z,101755.88
2023-04-04T04:59:30.958Z,101746.28
2023-04-04T05:02:01.566Z,101749.75
2023-04-04T05:04:28.869Z,101755.88
2023-04-04T05:07:03.639Z,101755.19
2023-04-04T05:09:31.161Z,101755.03
2023-04-04T05:11:57.938Z,101759.16
2023-04-04T05:14:34.644Z,101753.56
2023-04-04T05:17:01.532Z,101757.84
2023-04-04T05:19:31.474Z,101761.50
2023-04-04T05:21:59.659Z,101759.16
2023-04-04T05:24:42.893Z,101759.16
2023-04-04T05:27:12.385Z,101760.47
2023-04-04T05:29:44.417Z,101754.03
2023-04-04T05:32:11.324Z,101758.19
2023-04-04T05:34:39.304Z,101756.88
2023-04-04T05:37:10.922Z,101753.22
2023-04-04T05:39:39.476Z,101754.84
2023-04-04T05:42:08.925Z,101759.97
2023-04-04T05:44:40.389Z,101755.19
2023-04-04T05:47:08.637Z,101757.69
2023-04-04T05:49:38.756Z,101761.81
2023-04-04T05:52:05.895Z,101761.44
2023-04-04T05:54:32.739Z,101767.25
2023-04-04T05:57:03.120Z,101768.41
2023-04-04T05:59:56.448Z,101778.31
2023-04-04T06:02:23.721Z,101775.00
2023-04-04T06:04:56.895Z,101773.34
2023-04-04T06:07:31.070Z,101769.38
2023-04-04T06:09:57.833Z,101763.75
2023-04-04T06:12:25.200Z,101765.09
2023-04-04T06:14:52.360Z,101767.22
2023-04-04T06:17:21.839Z,101766.22
2023-04-04T06:19:48.549Z,101776.63
2023-04-04T06:22:17.790Z,101774.31
2023-04-04T06:24:48.752Z,101771.81
2023-04-04T06:27:16.407Z,101773.28
2023-04-04T06:29:44.219Z,101770.94
2023-04-04T06:32:12.862Z,101766.97
2023-04-04T06:34:41.851Z,101773.25
2023-04-04T06:37:09.660Z,101779.59
2023-04-04T06:39:44.272Z,101769.78
2023-04-04T06:42:20.077Z,101768.88
2023-04-04T06:44:49.312Z,101766.69
2023-04-04T06:47:16.215Z,101764.94
2023-04-04T06:49:42.933Z,101775.19
2023-04-04T06:52:10.703Z,101761.22
2023-04-04T06:54:38.032Z,101768.94
2023-04-04T06:57:04.964Z,101760.66
2023-04-04T06:59:31.790Z,101768.56
2023-04-04T07:01:58.655Z,101774.44
2023-04-04T07:04:26.083Z,101768.78
2023-04-04T07:06:52.769Z,101778.00
2023-04-04T07:09:28.694Z,101780.38
2023-04-04T07:11:56.838Z,101775.69
2023-04-04T07:14:25.453Z,101779.53
2023-04-04T07:16:53.532Z,101782.59
2023-04-04T07:19:20.910Z,101780.84
2023-04-04T07:21:50.305Z,101778.13
2023-04-04T07:24:17.061Z,101779.47
2023-04-04T07:26:43.923Z,101775.28
2023-04-04T07:29:11.598Z,101773.63
2023-04-04T07:31:38.685Z,101779.31
2023-04-04T07:34:05.680Z,101772.97
2023-04-04T07:36:32.591Z,101781.41
2023-04-04T07:38:59.613Z,101772.53
2023-04-04T07:41:26.323Z,101767.50
2023-04-04T07:43:53.178Z,101769.88
2023-04-04T07:46:20.483Z,101772.88
2023-04-04T07:48:47.320Z,101778.19
2023-04-04T07:51:14.263Z,101779.84
2023-04-04T07:53:41.368Z,101775.47
2023-04-04T07:56:08.258Z,101772.25
2023-04-04T07:58:36.024Z,101769.41
2023-04-04T08:01:04.021Z,101765.19
2023-04-04T08:03:31.463Z,101773.97
2023-04-04T08:06:04.640Z,101773.97
2023-04-04T08:12:32.400Z,101763.31
2023-04-04T08:15:17.208Z,101768.47
2023-04-04T08:18:08.477Z,101773.94
2023-04-04T08:24:01.022Z,101763.16
2023-04-04T08:31:05.174Z,101766.50
2023-04-04T08:34:24.292Z,101765.69
2023-04-04T08:40:42.142Z,101752.81
2023-04-04T08:43:25.641Z,101759.00
2023-04-04T08:45:54.517Z,101769.50
2023-04-04T08:48:24.182Z,101768.09
2023-04-04T08:50:57.958Z,101753.41
2023-04-04T08:53:26.723Z,101756.78
2023-04-04T08:55:55.562Z,101749.03
2023-04-04T08:58:24.862Z,101748.69
2023-04-04T09:00:55.715Z,101741.88
2023-04-04T09:03:27.516Z,101741.28
2023-04-04T09:05:56.240Z,101752.63
2023-04-04T09:08:26.338Z,101732.75
2023-04-04T09:10:54.128Z,101718.00
2023-04-04T09:13:23.020Z,101720.31
2023-04-04T09:15:55.227Z,101716.41
2023-04-04T09:18:22.132Z,101711.13
2023-04-04T09:20:51.499Z,101704.88
2023-04-04T09:23:20.800Z,101714.75
2023-04-04T09:26:03.052Z,101704.44
2023-04-04T09:28:31.945Z,101690.06
2023-04-04T09:31:03.191Z,101695.31
2023-04-04T09:33:44.351Z,101697.44
2023-04-04T09:36:13.277Z,101696.31
2023-04-04T09:38:44.586Z,101689.00
2023-04-04T09:41:16.135Z,101687.00
2023-04-04T09:43:48.214Z,101683.78
2023-04-04T09:46:18.829Z,101678.44
2023-04-04T09:48:53.152Z,101667.75
2023-04-04T09:51:20.866Z,101683.09
2023-04-04T09:53:48.852Z,101680.78
2023-04-04T09:56:15.948Z,101681.63
2023-04-04T09:59:03.301Z,101668.91
2023-04-04T10:01:39.556Z,101672.91
2023-04-04T10:04:06.536Z,101665.41
2023-04-04T10:06:40.927Z,101657.56
2023-04-04T10:09:09.835Z,101659.19
2023-04-04T10:11:38.843Z,101663.34
2023-04-04T10:14:08.320Z,101666.53
2023-04-04T10:16:38.740Z,101668.19
2023-04-04T10:22:49.912Z,101642.91
2023-04-04T10:25:23.792Z,101639.28
2023-04-04T10:27:55.033Z,101641.06
2023-04-04T10:30:35.857Z,101639.72
2023-04-04T10:33:07.790Z,101647.81
2023-04-04T10:35:38.649Z,101651.03
2023-04-04T10:41:48.888Z,101647.28
2023-04-04T10:44:42.614Z,101641.66
2023-04-04T10:47:17.982Z,101643.41
2023-04-04T10:50:31.843Z,101645.00
2023-04-04T10:53:01.469Z,101632.53
2023-04-04T10:55:35.773Z,101623.34
2023-04-04T10:58:17.506Z,101633.38
2023-04-04T11:00:56.389Z,101619.59
2023-04-04T11:03:26.629Z,101611.34
2023-04-04T11:06:00.525Z,101613.63
2023-04-04T11:08:29.296Z,101609.50
2023-04-04T11:11:03.016Z,101613.34
2023-04-04T11:13:39.901Z,101603.88
2023-04-04T11:16:26.129Z,101608.50
2023-04-04T11:19:08.335Z,101590.16
2023-04-04T11:25:16.964Z,101590.88
2023-04-04T11:31:43.164Z,101594.16
2023-04-04T11:34:26.100Z,101592.00
2023-04-04T11:40:30.489Z,101585.31
2023-04-04T11:43:12.637Z,101577.31
2023-04-04T11:45:48.641Z,101575.66
2023-04-04T11:48:19.139Z,101572.25
2023-04-04T11:50:49.972Z,101571.47
2023-04-04T11:53:18.867Z,101579.81
2023-04-04T11:55:50.512Z,101566.81
2023-04-04T11:58:19.505Z,101569.88
2023-04-04T12:00:49.442Z,101564.81
2023-04-04T12:03:20.574Z,101556.59
2023-04-04T12:05:57.811Z,101554.13
2023-04-04T12:08:25.288Z,101556.72
2023-04-04T12:10:53.086Z,101541.19
2023-04-04T12:13:20.398Z,101544.13
2023-04-04T12:15:50.665Z,101541.00
2023-04-04T12:18:49.470Z,101539.13
2023-04-04T12:21:18.741Z,101534.44
2023-04-04T12:23:46.994Z,101540.81
2023-04-04T12:26:14.785Z,101535.19
2023-04-04T12:28:45.330Z,101549.09
2023-04-04T12:31:14.335Z,101539.94
2023-04-04T12:33:42.255Z,101551.56
2023-04-04T12:36:09.313Z,101548.84
2023-04-04T12:38:56.804Z,101565.84
2023-04-04T12:41:23.920Z,101551.88
2023-04-04T12:43:50.876Z,101544.47
2023-04-04T12:46:18.177Z,101552.84
2023-04-04T12:48:45.528Z,101560.03
2023-04-04T12:51:12.606Z,101555.91
2023-04-04T12:53:53.393Z,101552.78
2023-04-04T12:56:20.787Z,101554.78
2023-04-04T12:58:50.738Z,101539.78
2023-04-04T13:01:26.824Z,101544.72
2023-04-04T13:04:18.100Z,101541.97
2023-04-04T13:06:55.166Z,101542.19
2023-04-04T13:09:27.119Z,101544.75
2023-04-04T13:12:02.249Z,101538.00
2023-04-04T13:15:12.250Z,101539.28
2023-04-04T13:17:49.701Z,101545.13
2023-04-04T13:20:25.908Z,101533.84
2023-04-04T13:23:00.173Z,101523.31
2023-04-04T13:25:30.696Z,101531.00
2023-04-04T13:27:58.203Z,101525.91
2023-04-04T13:30:42.741Z,101525.41
2023-04-04T13:33:20.749Z,101519.72
2023-04-04T13:35:50.346Z,101522.63
2023-04-04T13:38:27.259Z,101502.41
2023-04-04T13:41:07.342Z,101510.88
2023-04-04T13:43:37.423Z,101505.16
2023-04-04T13:46:15.687Z,101503.78
2023-04-04T13:48:48.891Z,101508.59
2023-04-04T13:51:33.541Z,101501.03
2023-04-04T13:54:34.381Z,101499.91
2023-04-04T13:57:05.298Z,101495.03
2023-04-04T13:59:42.459Z,101488.63
2023-04-04T14:02:20.056Z,101485.84
2023-04-04T14:08:18.990Z,101486.94
2023-04-04T14:10:54.082Z,101485.78
2023-04-04T14:13:32.882Z,101487.56
2023-04-04T14:16:10.484Z,101482.94
2023-04-04T14:18:37.622Z,101479.44
2023-04-04T14:21:16.607Z,101480.09
2023-04-04T14:23:48.305Z,101473.22
2023-04-04T14:26:20.911Z,101475.44
2023-04-04T14:29:02.044Z,101468.41
2023-04-04T14:34:30.232Z,101461.59
2023-04-04T14:37:10.233Z,101463.13
2023-04-04T14:39:37.666Z,101463.53
2023-04-04T14:42:10.785Z,101471.78
2023-04-04T14:44:46.180Z,101462.16
2023-04-04T14:47:18.157Z,101459.91
2023-04-04T14:49:58.824Z,101454.91
2023-04-04T14:52:31.694Z,101452.84
2023-04-04T14:55:16.222Z,101451.88
2023-04-04T14:58:01.074Z,101443.94
2023-04-04T15:00:55.522Z,101441.69
2023-04-04T15:03:45.519Z,101451.13
2023-04-04T15:06:12.758Z,101444.72
2023-04-04T15:08:43.166Z,101448.09
2023-04-04T15:11:14.084Z,101439.94
2023-04-04T15:13:41.540Z,101447.06
2023-04-04T15:16:12.459Z,101445.41
2023-04-04T15:18:44.388Z,101449.50
2023-04-04T15:21:31.869Z,101449.44
2023-04-04T15:24:00.046Z,101443.94
2023-04-04T15:26:27.958Z,101442.19
2023-04-04T15:29:01.102Z,101441.38
2023-04-04T15:31:54.923Z,101437.94
2023-04-04T15:34:26.856Z,101432.91
2023-04-04T15:37:05.767Z,101430.28
2023-04-04T15:39:39.710Z,101428.47
2023-04-04T15:42:37.718Z,101422.44
2023-04-04T15:45:17.754Z,101415.88
2023-04-04T15:48:09.451Z,101419.03
2023-04-04T15:50:36.894Z,101418.31
2023-04-04T15:53:12.530Z,101421.41
2023-04-04T15:55:55.065Z,101418.38
2023-04-04T15:58:39.766Z,101411.63
2023-04-04T16:01:33.670Z,101410.41
2023-04-04T16:04:42.880Z,101410.56
2023-04-04T16:07:09.728Z,101419.16
2023-04-04T16:09:42.986Z,101421.03
2023-04-04T16:12:18.517Z,101411.81
2023-04-04T16:14:54.892Z,101417.66
2023-04-04T16:17:22.342Z,101425.38
2023-04-04T16:19:52.926Z,101427.16
2023-04-04T16:22:24.240Z,101417.53
2023-04-04T16:24:51.148Z,101417.00
2023-04-04T16:27:24.908Z,101405.78
2023-04-04T16:29:52.307Z,101404.38
2023-04-04T16:32:19.197Z,101404.84
2023-04-04T16:34:46.957Z,101404.16
2023-04-04T16:37:20.045Z,101404.09
2023-04-04T16:39:48.788Z,101404.59
2023-04-04T16:42:27.814Z,101405.19
2023-04-04T16:45:00.813Z,101406.72
2023-04-04T16:47:31.422Z,101401.25
2023-04-04T16:49:58.944Z,101391.88
2023-04-04T16:52:32.222Z,101390.38
2023-04-04T16:54:59.276Z,101392.13
2023-04-04T16:57:27.300Z,101386.16
2023-04-04T16:59:54.652Z,101400.16
2023-04-04T17:02:27.925Z,101396.53
2023-04-04T17:04:55.145Z,101386.75
2023-04-04T17:07:28.336Z,101394.91
2023-04-04T17:09:55.589Z,101400.09
2023-04-04T17:12:22.348Z,101403.47
2023-04-04T17:14:49.095Z,101404.41
2023-04-04T17:17:15.787Z,101398.66
2023-04-04T17:19:42.650Z,101395.78
2023-04-04T17:22:09.631Z,101403.22
2023-04-04T17:24:40.712Z,101411.25
2023-04-04T17:27:07.783Z,101406.97
2023-04-04T17:29:34.482Z,101408.25
2023-04-04T17:32:04.336Z,101403.09
2023-04-04T17:34:33.251Z,101406.59
2023-04-04T17:37:01.764Z,101403.31
2023-04-04T17:39:32.107Z,101404.00
2023-04-04T17:41:58.943Z,101401.44
2023-04-04T17:44:34.747Z,101399.50
2023-04-04T17:47:10.332Z,101394.84
2023-04-04T17:49:39.901Z,101396.34
2023-04-04T17:52:07.115Z,101397.63
2023-04-04T17:54:38.642Z,101396.66
2023-04-04T17:57:09.945Z,101398.63
2023-04-04T17:59:37.059Z,101394.59
2023-04-04T18:02:05.350Z,101398.75
2023-04-04T18:04:32.593Z,101400.28
2023-04-04T18:07:00.064Z,101387.56
2023-04-04T18:09:30.449Z,101390.69
2023-04-04T18:11:57.564Z,101388.22
2023-04-04T18:14:24.352Z,101392.41
2023-04-04T18:16:51.844Z,101401.91
2023-04-04T18:19:19.085Z,101396.19
2023-04-04T18:21:50.281Z,101398.47
2023-04-04T18:24:17.332Z,101397.50
2023-04-04T18:26:45.283Z,101396.31
2023-04-04T18:29:14.478Z,101407.44
2023-04-04T18:31:41.197Z,101410.78
2023-04-04T18:34:08.060Z,101411.22
2023-04-04T18:36:36.308Z,101410.03
2023-04-04T18:39:03.619Z,101420.31
2023-04-04T18:41:30.640Z,101418.91
2023-04-04T18:43:57.530Z,101422.03
2023-04-04T18:46:24.492Z,101422.47
2023-04-04T18:48:51.637Z,101421.28
2023-04-04T18:51:21.515Z,101418.44
2023-04-04T18:53:51.327Z,101426.56
2023-04-04T18:56:18.122Z,101422.81
2023-04-04T18:58:44.927Z,101426.56
2023-04-04T19:01:14.819Z,101431.06
2023-04-04T19:03:43.885Z,101434.78
2023-04-04T19:06:12.557Z,101434.59
2023-04-04T19:08:40.514Z,101434.66
2023-04-04T19:11:07.863Z,101432.84
2023-04-04T19:13:34.756Z,101430.81
2023-04-04T19:16:01.834Z,101429.63
2023-04-04T19:18:28.641Z,101430.06
2023-04-04T19:21:25.934Z,101437.88
2023-04-04T19:23:53.190Z,101447.78
2023-04-04T19:26:19.935Z,101444.50
2023-04-04T19:28:46.868Z,101449.03
2023-04-04T19:31:23.838Z,101452.06
2023-04-04T19:33:56.786Z,101445.97
2023-04-04T19:36:24.651Z,101453.34
2023-04-04T19:39:03.964Z,101456.22
2023-04-04T19:41:39.426Z,101458.53
2023-04-04T19:44:11.686Z,101467.16
2023-04-04T19:46:38.480Z,101468.44
2023-04-04T19:49:12.830Z,101465.56
2023-04-04T19:51:49.069Z,101470.53
2023-04-04T19:54:15.918Z,101473.38
2023-04-04T19:56:45.598Z,101469.69
2023-04-04T19:59:33.751Z,101473.78
2023-04-04T20:02:01.153Z,101475.47
2023-04-04T20:04:28.111Z,101475.66
2023-04-04T20:06:54.793Z,101475.03
2023-04-04T20:09:34.885Z,101477.06
2023-04-04T20:12:02.233Z,101473.78
2023-04-04T20:14:28.929Z,101467.25
2023-04-04T20:16:56.033Z,101466.63
2023-04-04T20:19:26.434Z,101468.06
2023-04-04T20:21:53.530Z,101470.31
2023-04-04T20:24:21.559Z,101470.13
2023-04-04T20:26:55.199Z,101478.53
2023-04-04T20:29:28.200Z,101476.09
2023-04-04T20:32:07.842Z,101472.81
2023-04-04T20:34:47.560Z,101474.88
2023-04-04T20:37:26.480Z,101478.34
2023-04-04T20:40:02.435Z,101479.59
2023-04-04T20:42:28.993Z,101482.03
2023-04-04T20:45:18.473Z,101481.44
2023-04-04T20:47:53.532Z,101479.38
2023-04-04T20:50:47.585Z,101481.63
2023-04-04T20:53:18.488Z,101482.44
2023-04-04T20:55:45.533Z,101486.13
2023-04-04T20:58:30.888Z,101481.44
2023-04-04T21:01:00.853Z,101489.81
2023-04-04T21:03:34.584Z,101486.97
2023-04-04T21:06:04.203Z,101488.19
2023-04-04T21:08:47.475Z,101487.56
2023-04-04T21:11:22.176Z,101493.91
2023-04-04T21:13:49.098Z,101494.09
2023-04-04T21:16:17.129Z,101494.31
2023-04-04T21:18:45.234Z,101497.19
2023-04-04T21:21:19.216Z,101496.56
2023-04-04T21:23:49.143Z,101490.63
2023-04-04T21:26:26.532Z,101496.31
2023-04-04T21:28:53.992Z,101493.06
2023-04-04T21:31:27.727Z,101498.59
2023-04-04T21:33:58.035Z,101502.47
2023-04-04T21:36:25.141Z,101492.84
2023-04-04T21:38:53.772Z,101501.25
2023-04-04T21:41:26.787Z,101501.63
2023-04-04T21:43:57.280Z,101495.88
2023-04-04T21:46:26.065Z,101503.25
2023-04-04T21:48:54.231Z,101507.94
2023-04-04T21:51:21.363Z,101505.88
2023-04-04T21:53:49.544Z,101503.22
2023-04-04T21:56:18.369Z,101500.78
2023-04-04T21:58:45.464Z,101505.28
2023-04-04T22:01:12.213Z,101494.84
2023-04-04T22:03:39.386Z,101502.41
2023-04-04T22:06:06.993Z,101497.47
2023-04-04T22:08:33.750Z,101500.13
2023-04-04T22:11:02.161Z,101499.50
2023-04-04T22:13:42.908Z,101494.97
2023-04-04T22:16:16.002Z,101497.44
2023-04-04T22:18:46.876Z,101503.16
2023-04-04T22:21:16.142Z,101497.84
2023-04-04T22:23:46.354Z,101498.03
2023-04-04T22:26:19.120Z,101491.94
2023-04-04T22:28:48.139Z,101487.44
2023-04-04T22:31:15.694Z,101480.31
2023-04-04T22:33:42.725Z,101486.47
2023-04-04T22:36:10.091Z,101487.50
2023-04-04T22:38:39.372Z,101485.28
2023-04-04T22:41:06.781Z,101485.69
2023-04-04T22:43:33.546Z,101480.78
2023-04-04T22:46:00.241Z,101478.31
2023-04-04T22:48:26.925Z,101477.50
2023-04-04T22:50:58.748Z,101468.09
2023-04-04T22:53:25.966Z,101482.81
2023-04-04T22:55:53.913Z,101473.78
2023-04-04T22:58:21.784Z,101467.63
2023-04-04T23:00:48.744Z,101476.59
2023-04-04T23:03:16.431Z,101468.00
2023-04-04T23:05:43.386Z,101468.38
2023-04-04T23:08:10.388Z,101462.84
2023-04-04T23:10:40.670Z,101463.88
2023-04-04T23:13:07.628Z,101465.69
2023-04-04T23:15:37.640Z,101469.19
2023-04-04T23:18:08.557Z,101465.91
2023-04-04T23:20:35.508Z,101465.31
2023-04-04T23:23:02.364Z,101458.13
2023-04-04T23:25:29.519Z,101462.22
2023-04-04T23:27:56.510Z,101462.22
2023-04-04T23:30:23.320Z,101460.38
2023-04-04T23:32:50.524Z,101458.94
2023-04-04T23:35:17.529Z,101457.31
2023-04-04T23:37:44.332Z,101458.31
2023-04-04T23:40:12.162Z,101457.50
2023-04-04T23:42:38.962Z,101458.72
2023-04-04T23:45:06.324Z,101452.78
2023-04-04T23:47:33.305Z,101450.31
2023-04-04T23:50:00.395Z,101444.56
2023-04-04T23:52:27.199Z,101449.50
2023-04-04T23:54:54.061Z,101443.75
2023-04-04T23:57:24.732Z,101443.50
2023-04-04T23:59:51.701Z,101442.66
